Time;durP1;ratioP1;P1;durP2;ratioP2;P2;SDS_P1;SDS_P2;PMS_P1;PMS_P2;Temp;Humidity;BMP_temperature;BMP_pressure;BME280_temperature;BME280_humidity;BME280_pressure;Samples;Min_cycle;Max_cycle;Signal;HPM_P1;HPM_P2
2023/02/16 00:00:58;;;;;;;;;;;9.60;72.10;;;8.42;57.52;101428.47;5029231;28;19981;-80
2023/02/16 00:03:27;;;;;;;;;;;9.60;72.10;;;8.42;57.43;101420.50;5030590;28;19932;-80
2023/02/16 00:05:54;;;;;;;;;;;9.60;72.00;;;8.42;57.53;101424.00;5037408;28;20143;-79
2023/02/16 00:08:21;;;;;;;;;;;9.60;72.10;;;8.43;57.57;101415.00;5032381;28;19929;-80
2023/02/16 00:13:46;;;;;;;;;;;9.60;72.10;;;8.43;57.61;101411.53;5029511;28;20308;-79
2023/02/16 00:16:15;;;;;;;;;;;9.60;71.90;;;8.43;57.48;101416.84;5040146;28;19972;-80
2023/02/16 00:18:44;;;;;;;;;;;9.60;71.90;;;8.40;57.40;101410.06;5045753;28;19929;-80
2023/02/16 00:21:11;;;;;;;;;;;9.60;71.90;;;8.38;57.31;101401.41;5041360;28;20363;-79
2023/02/16 00:23:38;;;;;;;;;;;9.60;71.90;;;8.38;57.29;101409.38;5030540;28;19925;-80
2023/02/16 00:26:06;;;;;;;;;;;9.60;71.90;;;8.37;57.47;101399.75;5029175;28;19925;-79
2023/02/16 00:28:33;;;;;;;;;;;9.60;71.80;;;8.35;57.42;101415.03;5033817;28;20308;-80
2023/02/16 00:30:59;;;;;;;;;;;9.60;71.80;;;8.34;57.32;101400.06;5036987;28;19947;-79
2023/02/16 00:33:26;;;;;;;;;;;9.60;71.70;;;8.32;57.12;101407.41;5033385;28;20390;-80
2023/02/16 00:35:55;;;;;;;;;;;9.50;71.70;;;8.31;57.38;101402.25;5043676;28;19929;-80
2023/02/16 00:38:22;;;;;;;;;;;9.50;71.70;;;8.31;57.40;101404.91;5027687;28;19929;-80
2023/02/16 00:40:49;;;;;;;;;;;9.50;71.70;;;8.30;57.30;101396.13;5025806;28;19936;-80
2023/02/16 00:43:25;;;;;;;;;;;9.50;71.60;;;8.30;57.17;101396.13;5038284;28;20047;-79
2023/02/16 00:45:52;;;;;;;;;;;9.50;71.60;;;8.28;57.26;101395.44;5035125;28;19928;-79
2023/02/16 00:48:19;;;;;;;;;;;9.50;71.60;;;8.27;57.14;101394.63;5038977;28;20309;-79
2023/02/16 00:50:46;;;;;;;;;;;9.50;71.50;;;8.23;57.20;101390.66;5036612;28;20373;-79
2023/02/16 00:53:15;;;;;;;;;;;9.50;71.60;;;8.24;57.31;101394.13;5029567;28;19932;-79
2023/02/16 00:55:43;;;;;;;;;;;9.50;71.60;;;8.22;57.18;101383.69;5029816;28;20298;-80
2023/02/16 00:58:15;;;;;;;;;;;9.50;71.70;;;8.23;56.98;101380.03;5029413;28;19925;-80
2023/02/16 01:00:46;;;;;;;;;;;9.50;71.50;;;8.19;57.14;101378.72;5037589;28;19931;-79
2023/02/16 01:03:16;;;;;;;;;;;9.40;71.50;;;8.21;57.08;101387.34;5040700;28;19929;-79
2023/02/16 01:05:43;;;;;;;;;;;9.40;71.40;;;8.19;56.71;101389.34;5040981;28;20300;-79
2023/02/16 01:11:09;;;;;;;;;;;9.40;71.10;;;8.17;57.03;101378.06;5028749;28;20546;-80
2023/02/16 01:13:41;;;;;;;;;;;9.60;71.30;;;8.15;56.93;101379.22;5022755;28;19955;-79
2023/02/16 01:16:16;;;;;;;;;;;9.40;71.40;;;8.13;57.16;101378.59;5029865;28;20308;-79
2023/02/16 01:18:43;;;;;;;;;;;9.40;71.50;;;8.12;56.92;101382.25;5036776;28;19925;-79
2023/02/16 01:21:12;;;;;;;;;;;9.40;71.50;;;8.11;56.88;101389.41;5028756;28;19929;-79
2023/02/16 01:23:39;;;;;;;;;;;9.40;71.40;;;8.11;57.07;101383.25;5030620;28;19932;-79
2023/02/16 01:26:14;;;;;;;;;;;9.40;71.40;;;8.10;57.18;101381.56;5028947;28;19929;-80
2023/02/16 01:28:41;;;;;;;;;;;9.30;71.50;;;8.09;57.19;101383.41;5025439;28;19972;-79
2023/02/16 01:31:10;;;;;;;;;;;9.30;71.70;;;8.10;57.09;101385.09;5036276;28;19940;-80
2023/02/16 01:33:39;;;;;;;;;;;9.30;71.60;;;8.11;57.03;101378.75;5055889;23;19968;-78
2023/02/16 01:36:18;;;;;;;;;;;9.30;71.50;;;8.13;57.15;101367.97;4997729;28;20397;-78
2023/02/16 01:38:45;;;;;;;;;;;9.30;71.50;;;8.12;56.80;101380.41;4996867;28;19929;-78
2023/02/16 01:41:22;;;;;;;;;;;9.30;71.40;;;8.12;56.87;101380.41;4995709;28;20332;-78
2023/02/16 01:43:52;;;;;;;;;;;9.30;71.50;;;8.12;57.00;101379.59;4991014;28;19926;-78
2023/02/16 01:46:23;;;;;;;;;;;9.30;71.50;;;8.11;56.75;101383.25;4993190;28;19925;-78
2023/02/16 01:48:50;;;;;;;;;;;9.30;71.40;;;8.12;56.80;101377.75;5011945;28;19929;-78
2023/02/16 01:51:21;;;;;;;;;;;9.30;71.30;;;8.09;56.71;101383.41;5009522;28;19929;-78
2023/02/16 01:53:51;;;;;;;;;;;9.30;71.30;;;8.04;57.04;101375.13;5008839;28;20386;-78
2023/02/16 01:56:28;;;;;;;;;;;9.30;71.50;;;8.07;56.63;101366.81;4992695;28;19960;-78
2023/02/16 01:58:59;;;;;;;;;;;9.20;71.30;;;8.07;57.08;101363.34;5014616;28;20389;-78
2023/02/16 02:01:37;;;;;;;;;;;9.30;71.40;;;8.08;57.03;101365.81;5000464;28;19930;-78
2023/02/16 02:06:56;;;;;;;;;;;9.30;71.30;;;8.07;56.77;101358.84;4992446;28;19936;-78
2023/02/16 02:09:25;;;;;;;;;;;9.30;71.30;;;8.07;56.60;101363.34;5005564;28;20297;-78
2023/02/16 02:11:57;;;;;;;;;;;9.30;71.30;;;8.06;56.74;101375.81;5000067;28;19934;-78
2023/02/16 02:14:26;;;;;;;;;;;9.20;71.00;;;8.06;56.47;101369.66;4990170;28;19926;-78
2023/02/16 02:16:55;;;;;;;;;;;9.30;71.10;;;8.03;56.69;101365.50;4983118;28;20346;-78
2023/02/16 02:19:23;;;;;;;;;;;9.20;70.90;;;8.01;56.67;101354.25;5008848;28;19944;-78
2023/02/16 02:25:14;;;;;;;;;;;9.20;71.10;;;8.01;56.48;101356.91;4984159;28;20398;-78
2023/02/16 02:27:46;;;;;;;;;;;9.20;71.10;;;7.95;56.59;101350.44;5006972;28;19936;-78
2023/02/16 02:30:30;;;;;;;;;;;9.10;71.00;;;7.94;56.56;101346.13;4992850;28;19929;-78
2023/02/16 02:33:26;;;;;;;;;;;9.10;71.20;;;7.92;56.56;101342.00;4995442;28;19926;-78
2023/02/16 02:35:58;;;;;;;;;;;9.10;71.20;;;7.89;56.63;101337.00;4998783;28;20425;-78
2023/02/16 02:38:29;;;;;;;;;;;9.10;71.00;;;7.95;56.88;101344.28;4992624;28;19930;-78
2023/02/16 02:41:04;;;;;;;;;;;9.20;71.10;;;7.95;57.01;101344.28;4992498;28;19929;-78
2023/02/16 02:43:38;;;;;;;;;;;9.10;71.30;;;7.93;56.76;101343.63;4990922;28;19929;-78
2023/02/16 02:46:09;;;;;;;;;;;9.10;71.20;;;7.94;57.02;101329.34;4987361;28;20347;-78
2023/02/16 02:48:36;;;;;;;;;;;9.10;71.30;;;7.87;56.68;101331.88;4999866;28;19936;-78
2023/02/16 02:51:28;;;;;;;;;;;9.10;71.30;;;7.88;56.56;101330.06;5020057;28;19933;-78
2023/02/16 03:02:33;;;;;;;;;;;9.00;71.00;;;7.80;56.96;101319.44;4995884;28;19977;-78
2023/02/16 03:05:03;;;;;;;;;;;9.00;71.30;;;7.81;57.13;101318.44;4999168;28;20508;-78
2023/02/16 03:13:17;;;;;;;;;;;9.00;71.30;;;7.86;56.48;101313.47;5093921;28;19932;-79
2023/02/16 03:15:46;;;;;;;;;;;9.00;71.20;;;7.83;56.87;101308.50;5074962;28;20404;-79
2023/02/16 03:29:21;;;;;;;;;;;9.00;70.70;;;7.86;56.36;101298.38;5062151;28;20294;-79
2023/02/16 03:31:49;;;;;;;;;;;9.00;71.10;;;7.85;56.63;101298.50;5078363;28;19929;-79
2023/02/16 03:34:16;;;;;;;;;;;9.00;71.10;;;7.86;56.63;101295.72;5069379;28;19935;-79
2023/02/16 03:36:46;;;;;;;;;;;9.20;71.30;;;7.87;56.76;101300.00;5066898;28;20312;-79
2023/02/16 03:39:13;;;;;;;;;;;9.00;71.30;;;7.87;56.66;101297.34;5065967;28;19932;-79
2023/02/16 03:41:45;;;;;;;;;;;9.00;71.20;;;7.87;56.80;101291.22;5066843;28;19925;-79
2023/02/16 03:44:12;;;;;;;;;;;9.00;71.20;;;7.84;56.85;101294.22;5066680;28;19925;-79
2023/02/16 03:46:39;;;;;;;;;;;9.00;71.10;;;7.87;56.68;101296.53;5076165;28;20023;-79
2023/02/16 03:49:06;;;;;;;;;;;9.00;71.20;;;7.87;56.84;101289.38;5069083;28;19928;-79
2023/02/16 03:51:33;;;;;;;;;;;9.00;71.10;;;7.87;56.77;101297.34;5065896;28;19932;-79
2023/02/16 03:54:00;;;;;;;;;;;9.00;71.20;;;7.87;56.71;101288.56;5066526;28;19931;-79
2023/02/16 03:56:27;;;;;;;;;;;9.10;71.30;;;7.89;56.60;101292.69;5066158;28;19936;-79
2023/02/16 03:58:56;;;;;;;;;;;9.10;71.30;;;7.91;56.68;101303.16;5076700;28;19928;-79
2023/02/16 04:01:23;;;;;;;;;;;9.10;71.10;;;7.90;56.54;101304.13;5081808;28;19931;-79
2023/02/16 04:03:49;;;;;;;;;;;9.10;71.10;;;7.86;56.69;101305.50;5065866;28;20373;-79
2023/02/16 04:06:16;;;;;;;;;;;9.10;71.30;;;7.89;56.55;101297.16;5066036;28;19929;-79
2023/02/16 04:08:43;;;;;;;;;;;9.00;70.90;;;7.90;56.57;101301.47;5072379;28;19931;-79
2023/02/16 04:13:56;;;;;;;;;;;9.00;70.90;;;7.85;56.28;101306.47;5090994;28;20031;-79
2023/02/16 04:16:23;;;;;;;;;;;9.00;70.90;;;7.84;56.54;101307.47;5104810;28;19924;-79
2023/02/16 04:18:50;;;;;;;;;;;9.00;71.00;;;7.86;56.35;101300.19;5093107;28;19925;-79
2023/02/16 04:21:17;;;;;;;;;;;9.00;70.90;;;7.87;56.49;101301.84;5072720;28;20323;-79
2023/02/16 04:23:44;;;;;;;;;;;9.00;71.10;;;7.86;56.50;101294.88;5072850;28;19924;-79
2023/02/16 04:26:11;;;;;;;;;;;9.00;70.90;;;7.85;56.27;101290.53;5065016;28;19924;-79
2023/02/16 04:28:37;;;;;;;;;;;9.00;70.80;;;7.84;56.64;101288.91;5080452;28;20585;-79
2023/02/16 04:31:06;;;;;;;;;;;9.00;70.90;;;7.82;56.32;101293.56;5084755;28;19928;-79
2023/02/16 04:33:33;;;;;;;;;;;9.00;70.60;;;7.80;56.71;101291.06;5086241;28;19925;-79
2023/02/16 04:36:00;;;;;;;;;;;9.00;70.90;;;7.82;56.49;101291.72;5069057;28;19932;-79
2023/02/16 04:38:27;;;;;;;;;;;9.00;70.90;;;7.80;56.81;101298.22;5063926;28;20393;-79
2023/02/16 04:40:53;;;;;;;;;;;9.00;71.10;;;7.82;56.92;101298.88;5084384;28;19931;-79
2023/02/16 04:43:20;;;;;;;;;;;9.00;71.20;;;7.81;56.83;101298.06;5062656;28;19932;-79
2023/02/16 04:45:47;;;;;;;;;;;9.00;71.10;;;7.81;56.61;101300.72;5054034;28;19928;-79
2023/02/16 04:48:16;;;;;;;;;;;9.00;71.10;;;7.82;56.58;101288.25;5051035;28;19929;-79
2023/02/16 04:50:43;;;;;;;;;;;9.00;71.00;;;7.79;56.38;101285.94;5061135;28;19987;-79
2023/02/16 04:53:10;;;;;;;;;;;9.00;70.80;;;7.79;56.82;101291.25;5072434;28;19935;-79
2023/02/16 04:55:36;;;;;;;;;;;9.00;71.00;;;7.81;56.41;101292.75;5086835;28;19938;-79
2023/02/16 04:58:03;;;;;;;;;;;9.00;70.90;;;7.83;56.36;101296.03;5080314;28;19930;-79
2023/02/16 05:00:30;;;;;;;;;;;9.00;70.80;;;7.86;56.29;101300.19;5081394;28;19925;-79
2023/02/16 05:02:57;;;;;;;;;;;9.00;70.60;;;7.84;56.34;101299.53;5070785;28;19933;-79
2023/02/16 05:05:26;;;;;;;;;;;9.00;70.70;;;7.82;56.26;101297.03;5091113;28;19931;-77
2023/02/16 05:07:53;;;;;;;;;;;9.00;70.70;;;7.83;56.26;101300.53;5082377;28;19924;-77
2023/02/16 05:10:20;;;;;;;;;;;9.00;70.50;;;7.81;56.19;101295.41;5073751;28;19928;-79
2023/02/16 05:15:32;;;;;;;;;;;9.00;70.70;;;7.76;56.44;101297.75;5078428;28;19935;-75
2023/02/16 05:17:59;;;;;;;;;;;9.00;70.80;;;7.77;56.71;101295.91;5064716;28;19928;-75
2023/02/16 05:23:08;;;;;;;;;;;8.90;70.60;;;7.77;56.44;101302.03;5070337;28;19928;-75
2023/02/16 05:25:35;;;;;;;;;;;8.90;70.70;;;7.74;55.96;101299.72;5073293;28;19928;-75
2023/02/16 05:28:02;;;;;;;;;;;8.90;70.50;;;7.75;56.22;101288.91;5078321;28;19935;-75
2023/02/16 05:30:29;;;;;;;;;;;8.90;70.90;;;7.74;56.23;101297.91;5062895;28;20402;-75
2023/02/16 05:32:56;;;;;;;;;;;8.90;71.00;;;7.78;56.45;101300.22;5070063;28;19924;-76
2023/02/16 05:35:23;;;;;;;;;;;8.90;70.90;;;7.75;56.48;101298.72;5071473;28;19936;-76
2023/02/16 05:37:51;;;;;;;;;;;8.90;71.00;;;7.72;56.65;101302.56;5063903;28;20380;-76
2023/02/16 05:40:18;;;;;;;;;;;8.90;71.10;;;7.71;56.53;101298.25;5076219;28;20501;-75
2023/02/16 05:42:45;;;;;;;;;;;8.90;71.10;;;7.71;56.59;101297.41;5069772;28;20408;-75
2023/02/16 05:45:12;;;;;;;;;;;8.90;71.10;;;7.70;56.48;101301.06;5071033;28;19933;-75
2023/02/16 05:47:39;;;;;;;;;;;8.90;70.90;;;7.72;56.65;101296.44;5070469;28;19939;-76
2023/02/16 05:50:07;;;;;;;;;;;8.90;71.10;;;7.63;56.58;101297.44;5052660;28;19936;-76
2023/02/16 05:52:34;;;;;;;;;;;8.90;70.90;;;7.66;56.75;101294.44;5060635;28;20023;-76
2023/02/16 05:55:02;;;;;;;;;;;8.90;71.10;;;7.69;56.55;101304.72;5081300;28;19990;-75
2023/02/16 05:57:32;;;;;;;;;;;8.90;71.10;;;7.64;56.78;101305.22;5082395;28;19929;-75
2023/02/16 05:59:59;;;;;;;;;;;8.90;71.20;;;7.69;57.03;101307.38;5075856;28;19963;-75
2023/02/16 06:02:26;;;;;;;;;;;8.90;71.30;;;7.66;56.58;101294.44;5069364;28;19928;-76
2023/02/16 06:04:53;;;;;;;;;;;8.90;71.10;;;7.62;56.17;101299.28;5070730;28;19928;-76
2023/02/16 06:07:20;;;;;;;;;;;8.80;70.50;;;7.60;56.44;101298.59;5070281;28;19924;-76
2023/02/16 06:09:47;;;;;;;;;;;8.80;71.00;;;7.57;56.71;101298.97;5074562;28;19924;-76
2023/02/16 06:12:23;;;;;;;;;;;8.80;71.00;;;7.57;56.95;101295.50;5066309;28;19939;-77
2023/02/16 06:14:50;;;;;;;;;;;8.80;71.40;;;7.60;57.06;101293.31;5062137;28;20026;-77
2023/02/16 06:17:17;;;;;;;;;;;8.80;71.50;;;7.59;56.60;101294.31;5050308;28;19931;-75
2023/02/16 06:19:44;;;;;;;;;;;8.80;71.10;;;7.59;56.25;101286.34;5068820;28;20296;-75
2023/02/16 06:22:11;;;;;;;;;;;8.80;70.90;;;7.59;56.38;101291.66;5061284;28;19933;-74
2023/02/16 06:24:38;;;;;;;;;;;8.80;70.80;;;7.57;56.36;101295.50;5080351;28;19930;-74
2023/02/16 06:27:05;;;;;;;;;;;8.80;71.10;;;7.53;56.58;101286.22;5077610;28;20399;-75
2023/02/16 06:29:33;;;;;;;;;;;8.70;71.10;;;7.56;56.37;101294.63;5090027;28;19924;-75
2023/02/16 06:32:00;;;;;;;;;;;8.70;71.00;;;7.56;56.29;101291.16;5081712;28;19925;-75
2023/02/16 06:34:27;;;;;;;;;;;8.70;70.90;;;7.51;56.55;101291.66;5069283;28;19924;-75
2023/02/16 06:36:54;;;;;;;;;;;8.70;70.90;;;7.59;56.61;101296.13;5061786;28;19928;-74
2023/02/16 06:39:21;;;;;;;;;;;8.70;71.20;;;7.61;56.44;101304.75;5081270;28;20012;-75
2023/02/16 06:41:48;;;;;;;;;;;8.80;71.10;;;7.64;56.55;101305.22;5084323;28;19984;-75
2023/02/16 06:44:16;;;;;;;;;;;8.80;71.00;;;7.68;56.61;101303.91;5068418;28;20377;-75
2023/02/16 06:46:46;;;;;;;;;;;8.80;71.10;;;7.69;56.44;101294.94;5067405;28;19924;-75
2023/02/16 06:49:15;;;;;;;;;;;8.80;71.10;;;7.69;56.77;101300.25;5066907;28;19924;-75
2023/02/16 06:51:42;;;;;;;;;;;8.90;71.30;;;7.71;56.81;101306.22;5069911;28;19928;-76
2023/02/16 06:54:09;;;;;;;;;;;8.90;71.50;;;7.72;56.67;101294.59;5075804;28;20405;-76
2023/02/16 06:56:36;;;;;;;;;;;8.90;71.30;;;7.74;56.59;101297.91;5077139;28;19929;-75
2023/02/16 06:59:03;;;;;;;;;;;8.90;71.30;;;7.73;56.93;101290.09;5069224;28;19936;-75
2023/02/16 07:01:31;;;;;;;;;;;8.90;71.50;;;7.73;56.60;101293.59;5061656;28;19932;-75
2023/02/16 07:03:59;;;;;;;;;;;8.90;71.40;;;7.78;57.25;101297.56;5068547;28;20399;-75
2023/02/16 07:06:27;;;;;;;;;;;8.90;71.80;;;7.81;57.38;101302.50;5069591;28;19924;-75
2023/02/16 07:08:54;;;;;;;;;;;9.00;71.90;;;7.85;57.19;101307.31;5075219;28;19928;-75
2023/02/16 07:11:22;;;;;;;;;;;8.90;71.80;;;7.88;56.83;101303.50;5071527;28;19936;-76
2023/02/16 07:13:49;;;;;;;;;;;9.00;71.50;;;7.87;57.00;101310.63;5064460;28;20285;-76
2023/02/16 07:16:16;;;;;;;;;;;9.00;71.60;;;7.89;56.71;101307.78;5066622;28;19925;-76
2023/02/16 07:18:43;;;;;;;;;;;9.00;71.50;;;7.84;56.58;101312.81;5069775;28;19924;-75
2023/02/16 07:21:11;;;;;;;;;;;9.00;71.30;;;7.85;57.18;101298.50;5069000;28;20022;-75
2023/02/16 07:23:38;;;;;;;;;;;9.00;71.60;;;7.84;56.93;101302.19;5074395;28;20376;-76
2023/02/16 07:26:05;;;;;;;;;;;9.00;71.40;;;7.85;56.80;101299.34;5073044;28;19924;-75
2023/02/16 07:28:32;;;;;;;;;;;9.00;71.40;;;7.90;57.17;101290.84;5065278;28;20312;-75
2023/02/16 07:31:05;;;;;;;;;;;9.00;71.70;;;7.93;56.86;101287.88;5064708;28;19928;-76
2023/02/16 07:36:32;;;;;;;;;;;9.10;71.50;;;7.95;56.73;101285.84;4987440;28;20413;-78
2023/02/16 07:38:59;;;;;;;;;;;9.10;71.50;;;7.96;57.13;101285.69;4989963;28;20538;-78
2023/02/16 07:41:26;;;;;;;;;;;9.10;71.60;;;7.96;56.62;101284.88;4989811;28;19932;-77
2023/02/16 07:43:53;;;;;;;;;;;9.10;71.30;;;7.92;56.52;101279.06;5003816;28;19996;-78
2023/02/16 07:46:20;;;;;;;;;;;9.10;71.30;;;7.94;56.82;101282.38;4989060;28;20044;-78
2023/02/16 07:48:48;;;;;;;;;;;9.10;71.50;;;7.97;56.84;101291.84;4980153;28;19930;-77
2023/02/16 07:51:21;;;;;;;;;;;9.10;71.50;;;7.99;56.55;101295.13;4987228;28;19945;-78
2023/02/16 07:53:49;;;;;;;;;;;9.10;70.90;;;7.93;56.60;101294.00;5005775;28;19929;-78
2023/02/16 07:56:19;;;;;;;;;;;9.10;71.30;;;7.98;56.89;101304.09;4988964;28;19925;-78
2023/02/16 07:58:47;;;;;;;;;;;9.10;71.60;;;8.04;57.04;101287.47;4986183;28;19933;-77
2023/02/16 08:01:14;;;;;;;;;;;9.10;71.70;;;8.07;56.92;101297.75;4990633;28;19929;-78
2023/02/16 08:03:41;;;;;;;;;;;9.20;71.70;;;8.06;57.16;101304.06;4993036;28;20009;-77
2023/02/16 08:06:09;;;;;;;;;;;9.20;71.70;;;8.05;56.98;101305.06;4992255;28;19930;-77
2023/02/16 08:08:36;;;;;;;;;;;9.20;71.70;;;8.08;56.85;101302.06;4987993;28;19926;-77
2023/02/16 08:11:10;;;;;;;;;;;9.20;71.50;;;8.09;56.73;101303.72;4992525;28;19930;-77
2023/02/16 08:13:37;;;;;;;;;;;9.20;71.50;;;8.03;57.16;101306.25;4984322;28;19934;-77
2023/02/16 08:16:08;;;;;;;;;;;9.20;71.80;;;7.94;56.78;101308.09;4981548;28;20410;-76
2023/02/16 08:18:35;;;;;;;;;;;9.20;71.20;;;7.95;56.89;101312.41;4974285;28;20408;-77
2023/02/16 08:21:08;;;;;;;;;;;9.10;71.10;;;8.00;56.65;101315.38;4984748;28;19932;-77
2023/02/16 08:23:36;;;;;;;;;;;9.20;71.40;;;8.01;56.45;101309.09;4985507;28;19980;-78
2023/02/16 08:26:09;;;;;;;;;;;9.10;71.10;;;8.01;56.74;101314.41;4987486;28;20025;-77
2023/02/16 08:28:38;;;;;;;;;;;9.10;71.30;;;8.01;56.74;101317.06;4974047;28;20050;-77
2023/02/16 08:31:05;;;;;;;;;;;9.10;71.50;;;8.05;56.73;101318.34;4984175;28;19930;-77
2023/02/16 08:33:34;;;;;;;;;;;9.10;71.50;;;8.03;56.52;101311.56;4992137;28;20294;-77
2023/02/16 08:36:02;;;;;;;;;;;9.10;71.20;;;8.03;56.43;101312.38;4980661;28;19940;-77
2023/02/16 08:38:31;;;;;;;;;;;9.20;71.30;;;8.03;56.31;101319.53;4992209;28;20394;-78
2023/02/16 08:40:58;;;;;;;;;;;9.10;71.10;;;8.05;56.40;101309.53;4991132;28;19930;-77
2023/02/16 08:43:27;;;;;;;;;;;9.20;71.30;;;8.02;56.67;101307.25;4992863;28;19957;-77
2023/02/16 08:45:54;;;;;;;;;;;9.10;71.50;;;8.00;56.54;101316.22;4985110;28;19930;-77
2023/02/16 08:48:22;;;;;;;;;;;9.30;71.10;;;8.03;56.83;101317.69;4991013;28;19925;-76
2023/02/16 08:50:52;;;;;;;;;;;9.10;71.50;;;8.06;56.90;101319.19;4983979;28;19930;-76
2023/02/16 08:53:20;;;;;;;;;;;9.20;71.70;;;8.06;57.30;101319.19;4985562;28;19934;-77
2023/02/16 08:55:51;;;;;;;;;;;9.20;71.90;;;8.07;56.83;101316.34;4988506;28;20024;-76
2023/02/16 08:58:18;;;;;;;;;;;9.20;71.70;;;8.11;57.04;101324.81;4990641;28;19930;-77
2023/02/16 09:00:48;;;;;;;;;;;9.20;71.70;;;8.12;57.09;101319.31;4983097;28;20429;-77
2023/02/16 09:03:17;;;;;;;;;;;9.20;71.90;;;8.14;56.74;101313.81;4989135;28;19976;-77
2023/02/16 09:05:44;;;;;;;;;;;9.20;71.40;;;8.15;56.73;101323.44;4991690;28;20329;-76
2023/02/16 09:08:12;;;;;;;;;;;9.20;71.50;;;8.16;57.10;101325.94;4987950;28;19926;-77
2023/02/16 09:10:38;;;;;;;;;;;9.20;71.90;;;8.12;56.49;101315.84;4990166;28;19929;-77
2023/02/16 09:13:09;;;;;;;;;;;9.20;71.10;;;8.12;57.03;101321.16;4992465;28;20317;-78
2023/02/16 09:15:36;;;;;;;;;;;9.30;71.80;;;8.16;57.45;101315.31;4991908;28;19930;-76
2023/02/16 09:18:06;;;;;;;;;;;9.20;72.40;;;8.19;56.75;101322.91;4985749;28;20524;-76
2023/02/16 09:20:33;;;;;;;;;;;9.30;71.80;;;8.22;57.14;101322.56;4992279;28;19929;-77
2023/02/16 09:23:00;;;;;;;;;;;9.30;72.10;;;8.27;57.67;101322.06;4988992;28;20103;-77
2023/02/16 09:25:26;;;;;;;;;;;9.40;72.60;;;8.33;58.16;101328.50;4989836;28;19933;-76
2023/02/16 09:27:53;;;;;;;;;;;9.40;73.30;;;8.35;57.42;101322.00;4983710;28;19934;-76
2023/02/16 09:30:21;;;;;;;;;;;9.40;72.40;;;8.38;57.30;101321.69;5002961;28;19933;-77
2023/02/16 09:32:48;;;;;;;;;;;9.50;72.30;;;8.39;56.88;101315.34;4991977;28;19988;-77
2023/02/16 09:35:16;;;;;;;;;;;9.50;71.90;;;8.42;57.58;101316.84;4995708;28;19926;-77
2023/02/16 09:37:43;;;;;;;;;;;9.50;72.60;;;8.44;57.51;101320.13;4992932;28;20478;-76
2023/02/16 09:40:12;;;;;;;;;;;9.50;72.50;;;8.46;57.20;101328.78;5006444;28;19929;-77
2023/02/16 09:42:52;;;;;;;;;;;9.50;72.30;;;8.49;57.41;101328.41;5011461;28;20389;-76
2023/02/16 09:45:21;;;;;;;;;;;9.60;72.50;;;8.54;57.67;101312.78;5011545;28;20063;-77
2023/02/16 09:47:51;;;;;;;;;;;9.60;72.60;;;8.54;57.40;101320.75;5001027;28;19932;-77
2023/02/16 09:50:21;;;;;;;;;;;9.60;72.50;;;8.56;57.18;101329.38;4990452;28;20301;-76
2023/02/16 09:52:53;;;;;;;;;;;9.60;71.90;;;8.57;57.06;101332.84;5006115;28;19963;-76
2023/02/16 09:55:21;;;;;;;;;;;9.60;71.90;;;8.59;57.35;101338.81;5005123;28;19925;-77
2023/02/16 09:57:58;;;;;;;;;;;9.70;72.20;;;8.59;57.52;101338.81;5010061;28;20297;-77
2023/02/16 10:00:36;;;;;;;;;;;9.70;72.70;;;8.60;57.39;101343.16;5009303;28;20036;-77
2023/02/16 10:03:13;;;;;;;;;;;9.70;72.40;;;8.61;57.43;101348.28;5013310;28;19929;-76
2023/02/16 10:05:46;;;;;;;;;;;9.70;72.30;;;8.61;57.20;101352.78;5009986;28;19925;-77
2023/02/16 10:08:15;;;;;;;;;;;9.70;72.20;;;8.60;57.19;101357.28;5010896;28;20028;-77
2023/02/16 10:10:49;;;;;;;;;;;9.70;72.20;;;8.57;57.25;101356.78;5010324;28;19929;-77
2023/02/16 10:13:23;;;;;;;;;;;9.70;72.20;;;8.57;56.94;101360.28;5010099;28;20317;-77
2023/02/16 10:15:52;;;;;;;;;;;9.70;72.00;;;8.55;57.06;101364.13;5009361;28;20489;-77
2023/02/16 10:18:24;;;;;;;;;;;9.70;72.10;;;8.55;57.56;101364.94;5006318;28;20027;-77
2023/02/16 10:20:55;;;;;;;;;;;9.60;72.30;;;8.57;57.72;101357.63;5005456;28;19968;-77
2023/02/16 10:23:40;;;;;;;;;;;9.70;72.70;;;8.58;57.78;101348.63;5002410;28;19929;-77
2023/02/16 10:26:16;;;;;;;;;;;9.70;72.90;;;8.58;57.89;101338.00;5001221;28;19929;-77
2023/02/16 10:28:46;;;;;;;;;;;9.60;72.70;;;8.58;57.86;101343.31;5001888;28;19925;-77
2023/02/16 10:31:17;;;;;;;;;;;9.70;72.90;;;8.59;57.96;101344.13;5008713;28;19925;-77
2023/02/16 10:33:56;;;;;;;;;;;9.60;72.80;;;8.58;58.06;101348.63;5011124;28;20032;-76
2023/02/16 10:36:29;;;;;;;;;;;9.60;73.10;;;8.57;58.29;101344.31;5004041;28;19930;-77
2023/02/16 10:39:01;;;;;;;;;;;9.60;73.10;;;8.56;58.20;101348.00;5001775;28;19932;-77
2023/02/16 10:41:32;;;;;;;;;;;9.60;73.30;;;8.54;58.89;101343.84;5004253;28;19930;-76
2023/02/16 10:44:04;;;;;;;;;;;9.60;73.90;;;8.57;58.82;101354.13;5000952;28;20340;-77
2023/02/16 10:46:34;;;;;;;;;;;9.60;73.70;;;8.59;59.15;101360.09;5003234;28;19934;-81
2023/02/16 10:49:01;;;;;;;;;;;9.70;74.20;;;8.60;58.97;101356.44;5005202;28;19929;-86
2023/02/16 10:51:32;;;;;;;;;;;9.70;74.30;;;8.62;59.97;101355.25;5008452;28;19925;-80
2023/02/16 10:54:01;;;;;;;;;;;9.70;75.00;;;8.67;59.68;101358.22;5003623;28;19929;-80
2023/02/16 10:56:48;;;;;;;;;;;9.70;75.00;;;8.68;59.57;101343.06;5001960;28;20016;-80
2023/02/16 10:59:18;;;;;;;;;;;9.70;74.50;;;8.70;59.90;101347.22;5003421;28;19934;-81
2023/02/16 11:01:46;;;;;;;;;;;9.80;75.20;;;8.72;59.92;101347.88;5003317;28;19929;-80
2023/02/16 11:04:36;;;;;;;;;;;9.80;75.10;;;8.74;60.15;101345.88;4993552;28;19933;-79
2023/02/16 11:07:07;;;;;;;;;;;9.80;75.40;;;8.75;59.82;101339.53;5009615;28;19925;-76
2023/02/16 11:09:34;;;;;;;;;;;9.80;75.10;;;8.81;60.14;101342.50;5006695;28;19933;-81
2023/02/16 11:12:02;;;;;;;;;;;9.90;75.30;;;8.82;60.23;101341.47;5002636;28;19926;-81
2023/02/16 11:14:30;;;;;;;;;;;9.90;75.40;;;8.84;60.48;101347.47;4995526;28;19941;-81
2023/02/16 11:17:07;;;;;;;;;;;9.90;75.70;;;8.88;60.23;101344.28;5009594;28;19929;-80
2023/02/16 11:19:34;;;;;;;;;;;9.90;75.80;;;8.93;60.77;101330.41;5008560;28;19929;-80
2023/02/16 11:22:01;;;;;;;;;;;10.00;76.10;;;8.97;60.70;101326.41;5008789;28;19925;-79
2023/02/16 11:24:32;;;;;;;;;;;10.00;76.00;;;8.96;60.68;101322.91;4996981;28;19969;-80
2023/02/16 11:27:05;;;;;;;;;;;10.00;76.00;;;8.99;60.71;101322.56;5010810;28;19931;-79
2023/02/16 11:29:33;;;;;;;;;;;10.00;76.10;;;8.99;60.53;101319.91;4992416;28;19930;-80
2023/02/16 11:32:05;;;;;;;;;;;10.00;75.80;;;9.00;61.15;101316.22;5009076;28;19929;-82
2023/02/16 11:34:33;;;;;;;;;;;10.10;76.60;;;9.01;61.06;101306.41;5002344;28;19980;-79
2023/02/16 11:37:07;;;;;;;;;;;10.10;76.40;;;9.06;61.40;101305.88;5013572;28;19930;-78
2023/02/16 11:39:38;;;;;;;;;;;10.10;76.50;;;9.08;61.13;101301.19;4996475;28;19927;-78
2023/02/16 11:42:09;;;;;;;;;;;10.10;76.60;;;9.08;61.34;101304.69;4997038;28;20028;-78
2023/02/16 11:44:38;;;;;;;;;;;10.10;76.80;;;9.10;61.98;101299.19;5000266;28;19937;-79
2023/02/16 11:47:07;;;;;;;;;;;10.20;77.40;;;9.07;61.78;101286.22;5004222;28;19976;-79
2023/02/16 11:49:37;;;;;;;;;;;10.10;77.20;;;9.07;62.54;101289.72;4995433;28;20509;-80
2023/02/16 11:52:28;;;;;;;;;;;10.10;78.20;;;9.09;62.49;101286.91;5008531;28;19973;-79
2023/02/16 11:55:00;;;;;;;;;;;10.20;78.20;;;9.10;63.49;101302.66;5013115;28;20024;-79
2023/02/16 11:57:29;;;;;;;;;;;10.20;79.00;;;9.10;63.86;101308.00;5013984;28;19933;-80
2023/02/16 11:59:57;;;;;;;;;;;10.10;79.40;;;9.09;64.38;101314.31;5013635;28;20024;-79
2023/02/16 12:03:15;;;;;;;;;;;10.20;80.10;;;9.11;64.36;101308.81;5011798;28;19952;-80
2023/02/16 12:05:53;;;;;;;;;;;10.20;80.00;;;9.08;64.13;101302.03;4977148;28;19928;-80
2023/02/16 12:08:48;;;;;;;;;;;10.10;79.70;;;9.07;64.22;101297.69;5010635;28;19930;-80
2023/02/16 12:11:26;;;;;;;;;;;10.10;79.80;;;9.06;64.42;101298.72;5012571;28;20518;-80
2023/02/16 12:14:04;;;;;;;;;;;10.10;80.10;;;9.07;65.19;101286.22;5000390;28;20441;-80
2023/02/16 12:16:36;;;;;;;;;;;10.10;80.80;;;9.08;65.37;101275.44;5012052;28;19930;-80
2023/02/16 12:19:13;;;;;;;;;;;10.20;80.80;;;9.09;65.69;101271.75;5011055;28;19937;-79
2023/02/16 12:21:44;;;;;;;;;;;10.20;81.20;;;9.10;66.07;101257.44;5032067;28;20377;-80
2023/02/16 12:24:20;;;;;;;;;;;10.20;81.80;;;9.11;66.34;101269.72;5014336;28;19934;-80